Time,TemperatureF,DewpointF,PressureIn,WindDirection,WindDirectionDegrees,WindSpeedMPH,WindSpeedGustMPH,Humidity,HourlyPrecipIn,Conditions,Clouds,dailyrainin,SoftwareType,DateUTC
2013-02-19 00:00:00,47.5,37.5,29.80,SE,140,12.0,12.0,68,0.00,,,0.00,Wunderground v.1.15,2013-02-19 05:00:00,
2013-02-19 00:02:00,46.9,37.6,29.80,SSW,198,12.0,19.0,70,0.00,,,0.01,Wunderground v.1.15,2013-02-19 05:02:00,
2013-02-19 00:04:00,46.1,37.9,29.79,SW,224,12.0,19.0,73,0.00,,,0.01,Wunderground v.1.15,2013-02-19 05:04:00,
2013-02-19 00:10:00,44.9,38.1,29.79,South,175,10.0,10.0,77,0.08,,,0.01,Wunderground v.1.15,2013-02-19 05:10:00,
2013-02-19 00:14:00,44.3,38.2,29.78,South,175,8.0,10.0,79,0.08,,,0.01,Wunderground v.1.15,2013-02-19 05:14:00,
2013-02-19 00:20:00,43.8,38.3,29.77,SSE,160,7.0,7.0,81,0.08,,,0.02,Wunderground v.1.15,2013-02-19 05:20:00,
2013-02-19 00:25:00,43.4,38.3,29.77,SSE,159,7.0,8.0,82,0.09,,,0.03,Wunderground v.1.15,2013-02-19 05:25:00,
2013-02-19 00:31:00,43.2,38.4,29.77,SE,142,6.0,7.0,83,0.07,,,0.03,Wunderground v.1.15,2013-02-19 05:31:00,
2013-02-19 00:37:00,42.9,38.7,29.77,SSE,154,6.0,9.0,85,0.04,,,0.03,Wunderground v.1.15,2013-02-19 05:37:00,
2013-02-19 00:42:00,42.8,38.6,29.77,South,180,7.0,8.0,85,0.00,,,0.04,Wunderground v.1.15,2013-02-19 05:42:00,
2013-02-19 00:48:00,42.9,38.7,29.77,SSW,211,8.0,10.0,85,0.00,,,0.04,Wunderground v.1.15,2013-02-19 05:48:00,
2013-02-19 00:53:00,43.0,38.8,29.77,South,173,8.0,11.0,85,0.06,,,0.05,Wunderground v.1.15,2013-02-19 05:53:00,
2013-02-19 00:59:00,43.0,38.8,29.76,SSE,157,8.0,15.0,85,0.07,,,0.05,Wunderground v.1.15,2013-02-19 05:59:00,
2013-02-19 01:05:00,42.8,38.6,29.76,SSW,200,8.0,11.0,85,0.07,,,0.06,Wunderground v.1.15,2013-02-19 06:05:00,
2013-02-19 01:11:00,42.6,38.7,29.75,SSE,150,8.0,16.0,86,0.08,,,0.07,Wunderground v.1.15,2013-02-19 06:11:00,
2013-02-19 01:17:00,42.6,38.7,29.75,SE,131,8.0,16.0,86,0.06,,,0.08,Wunderground v.1.15,2013-02-19 06:17:00,
2013-02-19 01:22:00,42.6,38.7,29.74,SSE,159,9.0,10.0,86,0.06,,,0.08,Wunderground v.1.15,2013-02-19 06:22:00,
2013-02-19 01:27:00,42.5,38.6,29.74,South,173,7.0,10.0,86,0.05,,,0.08,Wunderground v.1.15,2013-02-19 06:27:00,
2013-02-19 01:33:00,42.4,38.5,29.73,SSE,147,8.0,11.0,86,0.00,,,0.08,Wunderground v.1.15,2013-02-19 06:33:00,
2013-02-19 01:39:00,42.4,38.5,29.73,South,186,9.0,11.0,86,0.00,,,0.08,Wunderground v.1.15,2013-02-19 06:39:00,
2013-02-19 01:44:00,42.4,38.5,29.72,South,174,8.0,9.0,86,0.00,,,0.08,Wunderground v.1.15,2013-02-19 06:44:00,
2013-02-19 01:50:00,42.5,38.3,29.72,SE,130,8.0,8.0,85,0.00,,,0.08,Wunderground v.1.15,2013-02-19 06:50:00,
2013-02-19 01:56:00,42.5,38.3,29.71,SSE,157,8.0,10.0,85,0.00,,,0.08,Wunderground v.1.15,2013-02-19 06:56:00,
2013-02-19 02:01:00,42.5,38.3,29.71,SSE,157,8.0,17.0,85,0.00,,,0.08,Wunderground v.1.15,2013-02-19 07:01:00,
2013-02-19 02:07:00,42.6,38.4,29.70,South,187,9.0,17.0,85,0.00,,,0.08,Wunderground v.1.15,2013-02-19 07:07:00,
2013-02-19 02:13:00,42.7,38.2,29.70,SSW,194,9.0,18.0,84,0.00,,,0.08,Wunderground v.1.15,2013-02-19 07:13:00,
2013-02-19 02:19:00,42.9,38.4,29.70,South,176,11.0,18.0,84,0.00,,,0.08,Wunderground v.1.15,2013-02-19 07:19:00,
2013-02-19 02:25:00,42.9,38.4,29.69,South,187,10.0,13.0,84,0.00,,,0.08,Wunderground v.1.15,2013-02-19 07:25:00,
2013-02-19 02:30:00,42.7,38.2,29.69,SSE,153,8.0,15.0,84,0.00,,,0.08,Wunderground v.1.15,2013-02-19 07:30:00,
2013-02-19 02:36:00,42.7,38.2,29.69,SSE,168,10.0,15.0,84,0.00,,,0.08,Wunderground v.1.15,2013-02-19 07:36:00,
2013-02-19 02:41:00,42.8,38.3,29.69,ESE,122,9.0,10.0,84,0.00,,,0.08,Wunderground v.1.15,2013-02-19 07:41:00,
2013-02-19 02:47:00,42.8,38.3,29.69,ESE,115,10.0,13.0,84,0.00,,,0.08,Wunderground v.1.15,2013-02-19 07:47:00,
2013-02-19 02:53:00,42.5,38.3,29.68,South,188,9.0,12.0,85,0.00,,,0.08,Wunderground v.1.15,2013-02-19 07:53:00,
2013-02-19 02:59:00,42.3,38.4,29.68,SSE,155,9.0,12.0,86,0.00,,,0.09,Wunderground v.1.15,2013-02-19 07:59:00,
2013-02-19 03:05:00,42.1,38.5,29.67,SSW,212,8.0,16.0,87,0.00,,,0.09,Wunderground v.1.15,2013-02-19 08:05:00,
2013-02-19 03:10:00,42.0,38.4,29.67,SSE,162,8.0,11.0,87,0.00,,,0.09,Wunderground v.1.15,2013-02-19 08:10:00,
2013-02-19 03:16:00,42.0,38.4,29.67,South,181,9.0,11.0,87,0.00,,,0.09,Wunderground v.1.15,2013-02-19 08:16:00,
2013-02-19 03:21:00,42.1,38.5,29.67,SSW,199,10.0,10.0,87,0.00,,,0.09,Wunderground v.1.15,2013-02-19 08:21:00,
2013-02-19 03:27:00,42.0,38.4,29.66,SE,133,8.0,14.0,87,0.00,,,0.09,Wunderground v.1.15,2013-02-19 08:27:00,
2013-02-19 03:32:00,42.0,38.4,29.67,SSE,155,8.0,9.0,87,0.00,,,0.09,Wunderground v.1.15,2013-02-19 08:32:00,
2013-02-19 03:38:00,42.0,38.4,29.66,South,188,9.0,15.0,87,0.00,,,0.09,Wunderground v.1.15,2013-02-19 08:38:00,
2013-02-19 03:44:00,42.1,38.2,29.66,SSE,155,9.0,9.0,86,0.00,,,0.09,Wunderground v.1.15,2013-02-19 08:44:00,
2013-02-19 03:49:00,42.3,38.4,29.66,South,177,9.0,11.0,86,0.00,,,0.09,Wunderground v.1.15,2013-02-19 08:49:00,
2013-02-19 03:55:00,42.5,38.3,29.66,SSW,194,9.0,18.0,85,0.00,,,0.09,Wunderground v.1.15,2013-02-19 08:55:00,
2013-02-19 04:00:00,42.7,38.2,29.65,South,188,11.0,12.0,84,0.00,,,0.09,Wunderground v.1.15,2013-02-19 09:00:00,
2013-02-19 04:06:00,42.7,38.2,29.65,SSW,209,11.0,14.0,84,0.00,,,0.09,Wunderground v.1.15,2013-02-19 09:06:00,
2013-02-19 04:12:00,42.7,38.5,29.65,South,179,10.0,10.0,85,0.00,,,0.09,Wunderground v.1.15,2013-02-19 09:12:00,
2013-02-19 04:17:00,42.6,38.4,29.65,SE,134,10.0,19.0,85,0.00,,,0.09,Wunderground v.1.15,2013-02-19 09:17:00,
2013-02-19 04:22:00,42.5,38.3,29.64,SSW,195,10.0,16.0,85,0.00,,,0.09,Wunderground v.1.15,2013-02-19 09:22:00,
2013-02-19 04:28:00,42.4,38.5,29.65,SE,130,9.0,17.0,86,0.00,,,0.09,Wunderground v.1.15,2013-02-19 09:28:00,
2013-02-19 04:33:00,42.4,38.5,29.64,SSW,207,9.0,15.0,86,0.00,,,0.09,Wunderground v.1.15,2013-02-19 09:33:00,
2013-02-19 04:39:00,42.5,38.6,29.64,SE,142,8.0,15.0,86,0.00,,,0.09,Wunderground v.1.15,2013-02-19 09:39:00,
2013-02-19 04:45:00,42.5,38.6,29.64,SSW,209,8.0,12.0,86,0.00,,,0.09,Wunderground v.1.15,2013-02-19 09:45:00,
2013-02-19 04:50:00,42.5,38.3,29.63,SSW,202,8.0,8.0,85,0.00,,,0.09,Wunderground v.1.15,2013-02-19 09:50:00,
2013-02-19 04:56:00,42.6,38.4,29.63,SSE,147,9.0,17.0,85,0.00,,,0.09,Wunderground v.1.15,2013-02-19 09:56:00,
2013-02-19 05:02:00,42.5,38.6,29.63,SSW,194,9.0,9.0,86,0.00,,,0.09,Wunderground v.1.15,2013-02-19 10:02:00,
2013-02-19 05:07:00,42.5,38.6,29.64,SSW,194,9.0,9.0,86,0.00,,,0.09,Wunderground v.1.15,2013-02-19 10:07:00,
2013-02-19 05:13:00,42.5,38.6,29.64,SSW,200,9.0,13.0,86,0.00,,,0.09,Wunderground v.1.15,2013-02-19 10:13:00,
2013-02-19 05:19:00,42.6,38.7,29.63,SE,130,9.0,17.0,86,0.00,,,0.09,Wunderground v.1.15,2013-02-19 10:19:00,
2013-02-19 05:24:00,42.7,38.8,29.63,SSW,194,9.0,13.0,86,0.00,,,0.09,Wunderground v.1.15,2013-02-19 10:24:00,
2013-02-19 05:29:00,42.7,38.8,29.63,SW,219,10.0,19.0,86,0.00,,,0.09,Wunderground v.1.15,2013-02-19 10:29:00,
2013-02-19 05:34:00,42.7,38.8,29.63,SSE,154,9.0,10.0,86,0.00,,,0.09,Wunderground v.1.15,2013-02-19 10:34:00,
2013-02-19 05:40:00,42.8,38.9,29.63,South,186,9.0,9.0,86,0.00,,,0.09,Wunderground v.1.15,2013-02-19 10:40:00,
2013-02-19 05:45:00,42.9,39.0,29.63,South,184,10.0,15.0,86,0.00,,,0.09,Wunderground v.1.15,2013-02-19 10:45:00,
2013-02-19 05:51:00,43.0,38.8,29.64,SW,218,11.0,18.0,85,0.00,,,0.09,Wunderground v.1.15,2013-02-19 10:51:00,
2013-02-19 05:56:00,42.3,37.2,29.67,WNW,282,8.0,18.0,82,0.00,,,0.10,Wunderground v.1.15,2013-02-19 10:56:00,
2013-02-19 06:02:00,38.8,33.8,29.68,West,277,4.0,5.0,82,0.11,,,0.11,Wunderground v.1.15,2013-02-19 11:02:00,
2013-02-19 06:08:00,36.4,32.3,29.68,NW,304,2.0,6.0,85,0.06,,,0.12,Wunderground v.1.15,2013-02-19 11:08:00,
2013-02-19 06:14:00,35.2,31.7,29.68,WNW,284,3.0,4.0,87,0.06,,,0.12,Wunderground v.1.15,2013-02-19 11:14:00,
2013-02-19 06:19:00,34.5,31.6,29.69,WNW,287,2.0,5.0,89,0.04,,,0.12,Wunderground v.1.15,2013-02-19 11:19:00,
2013-02-19 06:25:00,34.1,31.5,29.69,WNW,291,1.0,2.0,90,0.00,,,0.12,Wunderground v.1.15,2013-02-19 11:25:00,
2013-02-19 06:30:00,33.6,31.0,29.69,West,268,1.0,2.0,90,0.00,,,0.12,Wunderground v.1.15,2013-02-19 11:30:00,
2013-02-19 06:36:00,33.2,30.9,29.69,West,279,2.0,3.0,91,0.00,,,0.12,Wunderground v.1.15,2013-02-19 11:36:00,
2013-02-19 06:42:00,33.0,30.7,29.69,ENE,69,1.0,1.0,91,0.00,,,0.12,Wunderground v.1.15,2013-02-19 11:42:00,
2013-02-19 06:47:00,32.9,30.6,29.70,East,95,0.0,1.0,91,0.00,,,0.12,Wunderground v.1.15,2013-02-19 11:47:00,
2013-02-19 06:52:00,32.8,30.7,29.69,WSW,238,0.0,2.0,92,0.00,,,0.12,Wunderground v.1.15,2013-02-19 11:52:00,
2013-02-19 06:58:00,32.6,30.5,29.70,West,259,0.0,2.0,92,0.00,,,0.12,Wunderground v.1.15,2013-02-19 11:58:00,
2013-02-19 07:04:00,32.6,30.5,29.70,SW,219,0.0,0.0,92,0.00,,,0.12,Wunderground v.1.15,2013-02-19 12:04:00,
2013-02-19 07:10:00,32.6,30.8,29.70,WSW,238,0.0,2.0,93,0.00,,,0.12,Wunderground v.1.15,2013-02-19 12:10:00,
2013-02-19 07:16:00,32.6,30.8,29.70,SSW,207,0.0,2.0,93,0.00,,,0.12,Wunderground v.1.15,2013-02-19 12:16:00,
2013-02-19 07:21:00,32.7,30.9,29.70,West,264,1.0,1.0,93,0.00,,,0.12,Wunderground v.1.15,2013-02-19 12:21:00,
2013-02-19 07:27:00,32.8,31.0,29.71,SW,226,1.0,2.0,93,0.00,,,0.12,Wunderground v.1.15,2013-02-19 12:27:00,
2013-02-19 07:32:00,32.8,31.0,29.71,WSW,252,1.0,7.0,93,0.00,,,0.12,Wunderground v.1.15,2013-02-19 12:32:00,
2013-02-19 07:38:00,32.8,31.0,29.71,WSW,244,0.0,7.0,93,0.00,,,0.12,Wunderground v.1.15,2013-02-19 12:38:00,
2013-02-19 07:44:00,32.8,31.0,29.71,WNW,301,1.0,3.0,93,0.00,,,0.13,Wunderground v.1.15,2013-02-19 12:44:00,
2013-02-19 07:49:00,32.9,31.1,29.71,NNW,334,2.0,3.0,93,0.00,,,0.13,Wunderground v.1.15,2013-02-19 12:49:00,
2013-02-19 07:54:00,32.9,31.1,29.72,WNW,287,3.0,6.0,93,0.00,,,0.13,Wunderground v.1.15,2013-02-19 12:54:00,
2013-02-19 07:59:00,32.9,31.1,29.72,WSW,252,3.0,6.0,93,0.00,,,0.13,Wunderground v.1.15,2013-02-19 12:59:00,
2013-02-19 08:05:00,32.7,30.9,29.73,NW,312,4.0,8.0,93,0.00,,,0.13,Wunderground v.1.15,2013-02-19 13:05:00,
2013-02-19 08:11:00,32.4,30.3,29.73,WNW,299,3.0,3.0,92,0.00,,,0.13,Wunderground v.1.15,2013-02-19 13:11:00,
2013-02-19 08:17:00,32.2,30.1,29.74,West,269,3.0,4.0,92,0.00,,,0.13,Wunderground v.1.15,2013-02-19 13:17:00,
2013-02-19 08:22:00,32.1,30.0,29.74,SW,232,3.0,4.0,92,0.00,,,0.13,Wunderground v.1.15,2013-02-19 13:22:00,
2013-02-19 08:29:00,32.0,29.7,29.74,NW,304,3.0,5.0,91,0.00,,,0.13,Wunderground v.1.15,2013-02-19 13:29:00,
2013-02-19 08:34:00,32.1,29.5,29.74,West,281,3.0,4.0,90,0.00,,,0.13,Wunderground v.1.15,2013-02-19 13:34:00,
2013-02-19 08:39:00,32.0,29.4,29.75,SSW,211,2.0,4.0,90,0.00,,,0.13,Wunderground v.1.15,2013-02-19 13:39:00,
2013-02-19 08:45:00,32.0,29.4,29.75,SSW,197,2.0,6.0,90,0.00,,,0.13,Wunderground v.1.15,2013-02-19 13:45:00,
2013-02-19 08:50:00,31.9,29.0,29.75,WSW,255,4.0,4.0,89,0.00,,,0.13,Wunderground v.1.15,2013-02-19 13:50:00,
2013-02-19 08:56:00,31.9,29.3,29.76,WNW,286,2.0,5.0,90,0.00,,,0.13,Wunderground v.1.15,2013-02-19 13:56:00,
2013-02-19 09:01:00,31.7,28.8,29.76,WSW,251,3.0,5.0,89,0.00,,,0.13,Wunderground v.1.15,2013-02-19 14:01:00,
2013-02-19 09:06:00,31.4,28.3,29.77,SW,224,3.0,6.0,88,0.00,,,0.13,Wunderground v.1.15,2013-02-19 14:06:00,
2013-02-19 09:12:00,31.0,27.6,29.77,WNW,293,4.0,4.0,87,0.00,,,0.13,Wunderground v.1.15,2013-02-19 14:12:00,
2013-02-19 09:17:00,30.9,27.5,29.78,NW,325,3.0,5.0,87,0.00,,,0.13,Wunderground v.1.15,2013-02-19 14:17:00,
2013-02-19 09:23:00,30.6,26.6,29.78,NW,306,3.0,4.0,85,0.00,,,0.13,Wunderground v.1.15,2013-02-19 14:23:00,
2013-02-19 09:29:00,30.2,26.2,29.79,NW,319,4.0,7.0,85,0.00,,,0.13,Wunderground v.1.15,2013-02-19 14:29:00,
2013-02-19 09:34:00,29.7,25.5,29.79,NW,306,4.0,6.0,84,0.00,,,0.13,Wunderground v.1.15,2013-02-19 14:34:00,
2013-02-19 09:39:00,29.5,25.5,29.79,West,271,3.0,6.0,85,0.00,,,0.13,Wunderground v.1.15,2013-02-19 14:39:00,
2013-02-19 09:45:00,29.3,25.1,29.79,WNW,295,3.0,4.0,84,0.00,,,0.13,Wunderground v.1.15,2013-02-19 14:45:00,
2013-02-19 09:50:00,29.2,25.3,29.80,West,277,2.0,2.0,85,0.00,,,0.13,Wunderground v.1.15,2013-02-19 14:50:00,
2013-02-19 09:56:00,29.0,25.1,29.80,WSW,238,3.0,4.0,85,0.00,,,0.13,Wunderground v.1.15,2013-02-19 14:56:00,
2013-02-19 10:01:00,28.9,25.0,29.80,WSW,257,2.0,2.0,85,0.00,,,0.14,Wunderground v.1.15,2013-02-19 15:01:00,
2013-02-19 10:06:00,28.9,25.0,29.80,SW,229,2.0,5.0,85,0.00,,,0.14,Wunderground v.1.15,2013-02-19 15:06:00,
2013-02-19 10:12:00,28.9,24.7,29.80,SW,236,2.0,2.0,84,0.00,,,0.14,Wunderground v.1.15,2013-02-19 15:12:00,
2013-02-19 10:17:00,28.9,25.0,29.80,SSW,192,1.0,4.0,85,0.00,,,0.14,Wunderground v.1.15,2013-02-19 15:17:00,
2013-02-19 10:22:00,28.9,25.0,29.80,SSW,201,2.0,6.0,85,0.00,,,0.14,Wunderground v.1.15,2013-02-19 15:22:00,
2013-02-19 10:28:00,28.9,25.0,29.80,WSW,241,2.0,6.0,85,0.00,,,0.14,Wunderground v.1.15,2013-02-19 15:28:00,
2013-02-19 10:33:00,29.0,25.1,29.80,West,271,2.0,4.0,85,0.00,,,0.14,Wunderground v.1.15,2013-02-19 15:33:00,
2013-02-19 10:39:00,29.0,24.8,29.80,West,263,2.0,4.0,84,0.00,,,0.14,Wunderground v.1.15,2013-02-19 15:39:00,
2013-02-19 10:44:00,29.2,24.7,29.80,WSW,257,2.0,5.0,83,0.00,,,0.14,Wunderground v.1.15,2013-02-19 15:44:00,
2013-02-19 10:50:00,29.3,24.5,29.80,NW,319,2.0,7.0,82,0.00,,,0.14,Wunderground v.1.15,2013-02-19 15:50:00,
2013-02-19 10:55:00,29.4,24.3,29.81,WNW,282,3.0,7.0,81,0.00,,,0.14,Wunderground v.1.15,2013-02-19 15:55:00,
2013-02-19 11:00:00,29.4,24.3,29.81,WNW,290,3.0,3.0,81,0.00,,,0.14,Wunderground v.1.15,2013-02-19 16:00:00,
2013-02-19 11:06:00,29.4,24.6,29.81,NNW,330,3.0,6.0,82,0.00,,,0.14,Wunderground v.1.15,2013-02-19 16:06:00,
2013-02-19 11:11:00,29.4,24.3,29.80,NW,321,2.0,2.0,81,0.00,,,0.14,Wunderground v.1.15,2013-02-19 16:11:00,
2013-02-19 11:17:00,29.3,24.2,29.81,SW,235,2.0,6.0,81,0.00,,,0.14,Wunderground v.1.15,2013-02-19 16:17:00,
2013-02-19 11:22:00,29.3,24.5,29.81,WSW,245,3.0,5.0,82,0.00,,,0.14,Wunderground v.1.15,2013-02-19 16:22:00,
2013-02-19 11:27:00,29.2,24.7,29.81,West,260,2.0,5.0,83,0.00,,,0.14,Wunderground v.1.15,2013-02-19 16:27:00,
2013-02-19 11:34:00,28.8,24.9,29.82,WNW,296,3.0,12.0,85,0.00,,,0.14,Wunderground v.1.15,2013-02-19 16:34:00,
2013-02-19 11:39:00,27.7,22.6,29.82,West,267,5.0,12.0,81,0.00,,,0.14,Wunderground v.1.15,2013-02-19 16:39:00,
2013-02-19 11:44:00,27.2,22.1,29.82,NW,311,4.0,6.0,81,0.00,,,0.14,Wunderground v.1.15,2013-02-19 16:44:00,
2013-02-19 11:50:00,26.8,22.0,29.83,WNW,302,4.0,4.0,82,0.00,,,0.14,Wunderground v.1.15,2013-02-19 16:50:00,
2013-02-19 11:55:00,26.8,22.3,29.83,WNW,302,4.0,5.0,83,0.00,,,0.14,Wunderground v.1.15,2013-02-19 16:55:00,
2013-02-19 12:00:00,26.9,22.1,29.83,WNW,293,3.0,3.0,82,0.00,,,0.14,Wunderground v.1.15,2013-02-19 17:00:00,
2013-02-19 12:06:00,27.0,22.2,29.83,WNW,292,4.0,4.0,82,0.00,,,0.14,Wunderground v.1.15,2013-02-19 17:06:00,
2013-02-19 12:12:00,27.0,21.9,29.83,WNW,290,3.0,4.0,81,0.00,,,0.14,Wunderground v.1.15,2013-02-19 17:12:00,
2013-02-19 12:18:00,27.1,22.3,29.83,NW,304,2.0,4.0,82,0.00,,,0.14,Wunderground v.1.15,2013-02-19 17:18:00,
2013-02-19 12:24:00,27.2,22.1,29.83,West,278,1.0,3.0,81,0.00,,,0.14,Wunderground v.1.15,2013-02-19 17:24:00,
2013-02-19 12:29:00,27.2,22.1,29.82,NNW,329,2.0,3.0,81,0.00,,,0.14,Wunderground v.1.15,2013-02-19 17:29:00,
2013-02-19 12:34:00,27.3,22.2,29.83,West,266,1.0,2.0,81,0.00,,,0.14,Wunderground v.1.15,2013-02-19 17:34:00,
2013-02-19 12:40:00,27.4,22.3,29.82,WNW,291,2.0,3.0,81,0.00,,,0.14,Wunderground v.1.15,2013-02-19 17:40:00,
2013-02-19 12:45:00,27.4,22.3,29.82,WSW,244,2.0,4.0,81,0.00,,,0.14,Wunderground v.1.15,2013-02-19 17:45:00,
2013-02-19 12:51:00,27.5,22.7,29.82,West,275,1.0,1.0,82,0.00,,,0.14,Wunderground v.1.15,2013-02-19 17:51:00,
2013-02-19 12:56:00,27.8,23.0,29.82,SW,229,1.0,4.0,82,0.00,,,0.14,Wunderground v.1.15,2013-02-19 17:56:00,
2013-02-19 13:02:00,28.1,23.3,29.82,West,275,2.0,3.0,82,0.00,,,0.14,Wunderground v.1.15,2013-02-19 18:02:00,
2013-02-19 13:07:00,28.4,23.6,29.82,WNW,290,2.0,3.0,82,0.00,,,0.14,Wunderground v.1.15,2013-02-19 18:07:00,
2013-02-19 13:12:00,28.5,23.4,29.83,WSW,250,2.0,5.0,81,0.00,,,0.14,Wunderground v.1.15,2013-02-19 18:12:00,
2013-02-19 13:18:00,28.6,23.5,29.83,WSW,257,2.0,5.0,81,0.00,,,0.14,Wunderground v.1.15,2013-02-19 18:18:00,
2013-02-19 13:24:00,28.7,23.6,29.83,WNW,296,2.0,4.0,81,0.00,,,0.14,Wunderground v.1.15,2013-02-19 18:24:00,
2013-02-19 13:29:00,28.7,23.6,29.83,West,271,2.0,6.0,81,0.00,,,0.14,Wunderground v.1.15,2013-02-19 18:29:00,
2013-02-19 13:35:00,28.5,23.7,29.83,West,269,2.0,5.0,82,0.00,,,0.14,Wunderground v.1.15,2013-02-19 18:35:00,
2013-02-19 13:40:00,28.4,23.3,29.83,NNW,336,3.0,4.0,81,0.00,,,0.14,Wunderground v.1.15,2013-02-19 18:40:00,
2013-02-19 13:46:00,28.2,22.8,29.83,WSW,248,4.0,7.0,80,0.00,,,0.14,Wunderground v.1.15,2013-02-19 18:46:00,
2013-02-19 13:51:00,28.1,23.0,29.84,West,281,3.0,7.0,81,0.00,,,0.14,Wunderground v.1.15,2013-02-19 18:51:00,
2013-02-19 13:57:00,27.9,22.2,29.85,West,277,4.0,8.0,79,0.00,,,0.14,Wunderground v.1.15,2013-02-19 18:57:00,
2013-02-19 14:04:00,27.7,21.4,29.85,West,279,4.0,6.0,77,0.00,,,0.14,Wunderground v.1.15,2013-02-19 19:04:00,
2013-02-19 14:09:00,27.6,21.0,29.85,WNW,282,4.0,9.0,76,0.00,,,0.14,Wunderground v.1.15,2013-02-19 19:09:00,
2013-02-19 14:14:00,27.5,20.6,29.85,West,267,4.0,6.0,75,0.00,,,0.14,Wunderground v.1.15,2013-02-19 19:14:00,
2013-02-19 14:19:00,27.3,20.4,29.86,West,276,5.0,7.0,75,0.00,,,0.14,Wunderground v.1.15,2013-02-19 19:19:00,
2013-02-19 14:25:00,27.2,20.0,29.86,West,264,5.0,7.0,74,0.00,,,0.14,Wunderground v.1.15,2013-02-19 19:25:00,
2013-02-19 14:30:00,27.1,20.5,29.86,NW,310,4.0,4.0,76,0.00,,,0.14,Wunderground v.1.15,2013-02-19 19:30:00,
2013-02-19 14:36:00,27.0,20.4,29.86,WSW,246,4.0,5.0,76,0.00,,,0.14,Wunderground v.1.15,2013-02-19 19:36:00,
2013-02-19 14:41:00,27.1,20.5,29.86,NW,315,4.0,4.0,76,0.00,,,0.14,Wunderground v.1.15,2013-02-19 19:41:00,
2013-02-19 14:47:00,27.2,20.9,29.86,NW,304,3.0,4.0,77,0.00,,,0.14,Wunderground v.1.15,2013-02-19 19:47:00,
2013-02-19 14:53:00,27.4,21.4,29.86,NW,309,2.0,3.0,78,0.00,,,0.14,Wunderground v.1.15,2013-02-19 19:53:00,
2013-02-19 14:58:00,27.4,21.4,29.86,West,277,2.0,6.0,78,0.00,,,0.14,Wunderground v.1.15,2013-02-19 19:58:00,
2013-02-19 15:04:00,27.2,21.8,29.86,WSW,248,3.0,4.0,80,0.00,,,0.14,Wunderground v.1.15,2013-02-19 20:04:00,
2013-02-19 15:09:00,27.1,22.0,29.87,NW,312,3.0,4.0,81,0.00,,,0.14,Wunderground v.1.15,2013-02-19 20:09:00,
2013-02-19 15:14:00,27.0,22.2,29.87,WNW,292,3.0,4.0,82,0.00,,,0.14,Wunderground v.1.15,2013-02-19 20:14:00,
2013-02-19 15:20:00,27.1,22.3,29.87,WNW,292,3.0,3.0,82,0.00,,,0.14,Wunderground v.1.15,2013-02-19 20:20:00,
2013-02-19 15:26:00,27.1,22.0,29.87,West,271,3.0,5.0,81,0.00,,,0.14,Wunderground v.1.15,2013-02-19 20:26:00,
2013-02-19 15:31:00,27.1,22.0,29.88,West,268,3.0,3.0,81,0.00,,,0.14,Wunderground v.1.15,2013-02-19 20:31:00,
2013-02-19 15:36:00,27.0,22.2,29.88,WSW,258,3.0,4.0,82,0.00,,,0.14,Wunderground v.1.15,2013-02-19 20:36:00,
2013-02-19 15:42:00,27.1,22.3,29.88,WNW,298,2.0,4.0,82,0.00,,,0.14,Wunderground v.1.15,2013-02-19 20:42:00,
2013-02-19 15:47:00,27.1,22.0,29.88,WNW,298,3.0,6.0,81,0.00,,,0.14,Wunderground v.1.15,2013-02-19 20:47:00,
2013-02-19 15:52:00,27.0,21.9,29.88,WNW,294,4.0,5.0,81,0.00,,,0.14,Wunderground v.1.15,2013-02-19 20:52:00,
2013-02-19 15:58:00,26.9,21.8,29.89,NW,311,3.0,8.0,81,0.00,,,0.14,Wunderground v.1.15,2013-02-19 20:58:00,
2013-02-19 16:04:00,26.7,21.9,29.89,NW,304,3.0,4.0,82,0.00,,,0.14,Wunderground v.1.15,2013-02-19 21:04:00,
2013-02-19 16:09:00,26.5,20.9,29.89,WNW,287,5.0,8.0,79,0.00,,,0.14,Wunderground v.1.15,2013-02-19 21:09:00,
2013-02-19 16:14:00,26.3,20.7,29.90,West,281,5.0,8.0,79,0.00,,,0.14,Wunderground v.1.15,2013-02-19 21:14:00,
2013-02-19 16:20:00,25.8,21.1,29.91,WNW,287,5.0,5.0,82,0.00,,,0.14,Wunderground v.1.15,2013-02-19 21:20:00,
2013-02-19 16:25:00,25.6,20.9,29.91,West,259,4.0,5.0,82,0.00,,,0.14,Wunderground v.1.15,2013-02-19 21:25:00,
2013-02-19 16:31:00,25.6,20.3,29.92,West,264,3.0,9.0,80,0.00,,,0.14,Wunderground v.1.15,2013-02-19 21:31:00,
2013-02-19 16:36:00,25.6,19.4,29.92,WNW,302,4.0,9.0,77,0.00,,,0.14,Wunderground v.1.15,2013-02-19 21:36:00,
2013-02-19 16:42:00,25.7,19.2,29.92,West,263,4.0,4.0,76,0.00,,,0.14,Wunderground v.1.15,2013-02-19 21:42:00,
2013-02-19 16:47:00,25.7,18.9,29.92,NW,309,4.0,9.0,75,0.00,,,0.14,Wunderground v.1.15,2013-02-19 21:47:00,
2013-02-19 16:53:00,25.7,18.2,29.92,WNW,292,5.0,7.0,73,0.00,,,0.14,Wunderground v.1.15,2013-02-19 21:53:00,
2013-02-19 16:58:00,25.6,18.5,29.92,West,274,6.0,7.0,74,0.00,,,0.14,Wunderground v.1.15,2013-02-19 21:58:00,
2013-02-19 17:04:00,25.5,18.4,29.93,West,269,5.0,6.0,74,0.00,,,0.14,Wunderground v.1.15,2013-02-19 22:04:00,
2013-02-19 17:10:00,25.4,18.6,29.93,WNW,303,5.0,5.0,75,0.00,,,0.14,Wunderground v.1.15,2013-02-19 22:10:00,
2013-02-19 17:15:00,25.4,18.9,29.94,NW,306,4.0,6.0,76,0.00,,,0.14,Wunderground v.1.15,2013-02-19 22:15:00,
2013-02-19 17:21:00,25.3,18.8,29.94,West,279,4.0,4.0,76,0.00,,,0.14,Wunderground v.1.15,2013-02-19 22:21:00,
2013-02-19 17:26:00,25.2,18.7,29.94,WNW,301,3.0,6.0,76,0.00,,,0.14,Wunderground v.1.15,2013-02-19 22:26:00,
2013-02-19 17:31:00,25.3,19.1,29.94,NW,306,3.0,3.0,77,0.00,,,0.14,Wunderground v.1.15,2013-02-19 22:31:00,
2013-02-19 17:37:00,25.2,19.0,29.94,NW,313,3.0,5.0,77,0.00,,,0.14,Wunderground v.1.15,2013-02-19 22:37:00,
2013-02-19 17:42:00,25.2,19.3,29.95,WNW,292,3.0,3.0,78,0.00,,,0.14,Wunderground v.1.15,2013-02-19 22:42:00,
2013-02-19 17:48:00,25.2,19.6,29.95,WNW,296,3.0,6.0,79,0.00,,,0.14,Wunderground v.1.15,2013-02-19 22:48:00,
2013-02-19 17:54:00,25.0,19.7,29.96,SW,234,3.0,4.0,80,0.00,,,0.14,Wunderground v.1.15,2013-02-19 22:54:00,
2013-02-19 18:00:00,24.9,20.2,29.96,WNW,296,2.0,2.0,82,0.00,,,0.14,Wunderground v.1.15,2013-02-19 23:00:00,
2013-02-19 18:06:00,24.8,20.4,29.96,WNW,292,2.0,3.0,83,0.00,,,0.14,Wunderground v.1.15,2013-02-19 23:06:00,
2013-02-19 18:11:00,24.8,20.4,29.97,NW,313,2.0,5.0,83,0.00,,,0.14,Wunderground v.1.15,2013-02-19 23:11:00,
2013-02-19 18:16:00,24.8,20.4,29.97,NW,311,2.0,5.0,83,0.00,,,0.14,Wunderground v.1.15,2013-02-19 23:16:00,
2013-02-19 18:22:00,24.8,20.7,29.98,WNW,287,3.0,5.0,84,0.00,,,0.14,Wunderground v.1.15,2013-02-19 23:22:00,
2013-02-19 18:28:00,24.3,20.7,29.98,WNW,290,4.0,6.0,86,0.00,,,0.14,Wunderground v.1.15,2013-02-19 23:28:00,
2013-02-19 18:33:00,23.9,20.6,29.98,WNW,299,3.0,4.0,87,0.00,,,0.14,Wunderground v.1.15,2013-02-19 23:33:00,
2013-02-19 18:39:00,23.7,20.1,29.99,WNW,298,3.0,5.0,86,0.00,,,0.14,Wunderground v.1.15,2013-02-19 23:39:00,
2013-02-19 18:44:00,23.5,19.1,29.99,WNW,294,4.0,8.0,83,0.00,,,0.14,Wunderground v.1.15,2013-02-19 23:44:00,
2013-02-19 18:50:00,23.4,17.6,30.00,WNW,292,5.0,5.0,78,0.00,,,0.14,Wunderground v.1.15,2013-02-19 23:50:00,
2013-02-19 18:55:00,23.5,17.3,30.00,NW,312,5.0,11.0,77,0.00,,,0.14,Wunderground v.1.15,2013-02-19 23:55:00,
2013-02-19 19:00:00,23.5,17.0,30.00,NW,304,6.0,6.0,76,0.00,,,0.14,Wunderground v.1.15,2013-02-20 00:00:00,
2013-02-19 19:06:00,23.5,17.0,30.00,WNW,293,5.0,9.0,76,0.00,,,0.14,Wunderground v.1.15,2013-02-20 00:06:00,
2013-02-19 19:11:00,23.4,16.9,30.00,WNW,303,5.0,7.0,76,0.00,,,0.14,Wunderground v.1.15,2013-02-20 00:11:00,
2013-02-19 19:17:00,23.2,17.1,30.00,West,260,5.0,8.0,77,0.00,,,0.14,Wunderground v.1.15,2013-02-20 00:17:00,
2013-02-19 19:22:00,23.0,16.9,30.01,NW,305,5.0,7.0,77,0.00,,,0.14,Wunderground v.1.15,2013-02-20 00:22:00,
2013-02-19 19:28:00,22.8,17.0,30.01,WNW,298,6.0,9.0,78,0.00,,,0.14,Wunderground v.1.15,2013-02-20 00:28:00,
2013-02-19 19:34:00,22.6,16.8,30.01,NW,304,5.0,6.0,78,0.00,,,0.14,Wunderground v.1.15,2013-02-20 00:34:00,
2013-02-19 19:39:00,22.5,17.0,30.01,NW,320,4.0,6.0,79,0.00,,,0.14,Wunderground v.1.15,2013-02-20 00:39:00,
2013-02-19 19:44:00,22.4,16.9,30.01,NW,310,3.0,4.0,79,0.00,,,0.14,Wunderground v.1.15,2013-02-20 00:44:00,
2013-02-19 19:50:00,22.3,17.1,30.01,WNW,295,3.0,4.0,80,0.00,,,0.14,Wunderground v.1.15,2013-02-20 00:50:00,
2013-02-19 19:55:00,22.3,17.1,30.02,WNW,300,3.0,4.0,80,0.00,,,0.14,Wunderground v.1.15,2013-02-20 00:55:00,
2013-02-19 20:00:00,22.3,17.1,30.02,WNW,295,3.0,4.0,80,0.00,,,0.14,Wunderground v.1.15,2013-02-20 01:00:00,
2013-02-19 20:06:00,22.3,16.8,30.02,WNW,283,3.0,4.0,79,0.00,,,0.14,Wunderground v.1.15,2013-02-20 01:06:00,
2013-02-19 20:11:00,22.3,16.8,30.02,NW,309,3.0,4.0,79,0.00,,,0.14,Wunderground v.1.15,2013-02-20 01:11:00,
2013-02-19 20:17:00,22.3,17.1,30.02,WNW,302,3.0,8.0,80,0.00,,,0.14,Wunderground v.1.15,2013-02-20 01:17:00,
2013-02-19 20:22:00,22.3,17.1,30.02,NW,306,2.0,3.0,80,0.00,,,0.14,Wunderground v.1.15,2013-02-20 01:22:00,
2013-02-19 20:28:00,22.2,17.3,30.02,West,280,2.0,6.0,81,0.00,,,0.14,Wunderground v.1.15,2013-02-20 01:28:00,
2013-02-19 20:34:00,22.2,17.5,30.03,NW,304,2.0,2.0,82,0.00,,,0.14,Wunderground v.1.15,2013-02-20 01:34:00,
2013-02-19 20:39:00,22.2,17.5,30.03,NW,311,2.0,4.0,82,0.00,,,0.14,Wunderground v.1.15,2013-02-20 01:39:00,
2013-02-19 20:44:00,22.1,17.7,30.03,WNW,301,3.0,6.0,83,0.00,,,0.14,Wunderground v.1.15,2013-02-20 01:44:00,
2013-02-19 20:50:00,21.6,17.2,30.03,NW,313,4.0,4.0,83,0.00,,,0.14,Wunderground v.1.15,2013-02-20 01:50:00,
2013-02-19 20:55:00,21.5,17.1,30.03,WNW,297,3.0,4.0,83,0.00,,,0.14,Wunderground v.1.15,2013-02-20 01:55:00,
2013-02-19 21:00:00,21.5,16.6,30.03,WNW,299,3.0,3.0,81,0.00,,,0.14,Wunderground v.1.15,2013-02-20 02:00:00,
2013-02-19 21:06:00,21.7,16.2,30.03,WNW,282,4.0,8.0,79,0.00,,,0.14,Wunderground v.1.15,2013-02-20 02:06:00,
2013-02-19 21:12:00,21.8,16.0,30.04,WNW,296,4.0,5.0,78,0.00,,,0.14,Wunderground v.1.15,2013-02-20 02:12:00,
2013-02-19 21:17:00,21.8,16.3,30.04,WNW,300,3.0,10.0,79,0.00,,,0.14,Wunderground v.1.15,2013-02-20 02:17:00,
2013-02-19 21:24:00,21.8,16.6,30.04,WSW,240,4.0,9.0,80,0.00,,,0.14,Wunderground v.1.15,2013-02-20 02:24:00,
2013-02-19 21:29:00,21.8,16.0,30.04,WNW,288,3.0,9.0,78,0.00,,,0.14,Wunderground v.1.15,2013-02-20 02:29:00,
2013-02-19 21:34:00,21.8,15.7,30.04,WSW,257,4.0,5.0,77,0.00,,,0.14,Wunderground v.1.15,2013-02-20 02:34:00,
2013-02-19 21:39:00,21.8,16.0,30.05,NW,310,4.0,7.0,78,0.00,,,0.14,Wunderground v.1.15,2013-02-20 02:39:00,
2013-02-19 21:45:00,21.8,16.0,30.05,NW,313,4.0,4.0,78,0.00,,,0.14,Wunderground v.1.15,2013-02-20 02:45:00,
2013-02-19 21:51:00,21.8,16.0,30.05,West,277,3.0,6.0,78,0.00,,,0.14,Wunderground v.1.15,2013-02-20 02:51:00,
2013-02-19 21:56:00,21.7,16.2,30.05,NW,304,3.0,6.0,79,0.00,,,0.14,Wunderground v.1.15,2013-02-20 02:56:00,
2013-02-19 22:02:00,21.6,16.7,30.06,WNW,297,4.0,7.0,81,0.00,,,0.14,Wunderground v.1.15,2013-02-20 03:02:00,
2013-02-19 22:07:00,21.3,16.9,30.06,NW,309,4.0,8.0,83,0.00,,,0.14,Wunderground v.1.15,2013-02-20 03:07:00,
2013-02-19 22:13:00,20.9,16.8,30.06,WNW,296,4.0,6.0,84,0.00,,,0.14,Wunderground v.1.15,2013-02-20 03:13:00,
2013-02-19 22:19:00,20.8,15.9,30.06,NW,306,5.0,7.0,81,0.00,,,0.14,Wunderground v.1.15,2013-02-20 03:19:00,
2013-02-19 22:24:00,20.9,15.7,30.06,NNW,337,6.0,7.0,80,0.00,,,0.14,Wunderground v.1.15,2013-02-20 03:24:00,
2013-02-19 22:30:00,20.8,15.3,30.06,NW,317,6.0,6.0,79,0.00,,,0.14,Wunderground v.1.15,2013-02-20 03:30:00,
2013-02-19 22:35:00,20.8,15.3,30.06,WNW,283,5.0,6.0,79,0.00,,,0.14,Wunderground v.1.15,2013-02-20 03:35:00,
2013-02-19 22:41:00,20.8,15.3,30.06,NW,314,4.0,5.0,79,0.00,,,0.14,Wunderground v.1.15,2013-02-20 03:41:00,
2013-02-19 22:46:00,20.8,15.0,30.06,West,281,4.0,8.0,78,0.00,,,0.14,Wunderground v.1.15,2013-02-20 03:46:00,
2013-02-19 22:52:00,20.8,14.7,30.06,NW,313,5.0,9.0,77,0.00,,,0.14,Wunderground v.1.15,2013-02-20 03:52:00,
2013-02-19 22:58:00,20.8,14.7,30.06,WNW,303,7.0,9.0,77,0.00,,,0.14,Wunderground v.1.15,2013-02-20 03:58:00,
2013-02-19 23:04:00,20.8,14.7,30.06,NW,304,5.0,6.0,77,0.00,,,0.14,Wunderground v.1.15,2013-02-20 04:04:00,
2013-02-19 23:09:00,20.8,14.7,30.06,NW,307,5.0,6.0,77,0.00,,,0.14,Wunderground v.1.15,2013-02-20 04:09:00,
2013-02-19 23:15:00,20.8,14.7,30.06,NW,309,3.0,5.0,77,0.00,,,0.14,Wunderground v.1.15,2013-02-20 04:15:00,
2013-02-19 23:20:00,20.7,14.9,30.07,WNW,298,3.0,3.0,78,0.00,,,0.14,Wunderground v.1.15,2013-02-20 04:20:00,
2013-02-19 23:26:00,20.7,15.2,30.07,WNW,299,3.0,5.0,79,0.00,,,0.14,Wunderground v.1.15,2013-02-20 04:26:00,
2013-02-19 23:31:00,20.6,15.1,30.07,NW,308,2.0,2.0,79,0.00,,,0.14,Wunderground v.1.15,2013-02-20 04:31:00,
2013-02-19 23:37:00,20.6,15.1,30.07,NW,317,1.0,2.0,79,0.00,,,0.14,Wunderground v.1.15,2013-02-20 04:37:00,
2013-02-19 23:43:00,20.6,15.4,30.07,WNW,303,3.0,5.0,80,0.00,,,0.14,Wunderground v.1.15,2013-02-20 04:43:00,
2013-02-19 23:48:00,20.6,15.4,30.07,NW,309,3.0,5.0,80,0.00,,,0.14,Wunderground v.1.15,2013-02-20 04:48:00,
2013-02-19 23:54:00,20.6,15.4,30.07,NW,310,3.0,4.0,80,0.00,,,0.14,Wunderground v.1.15,2013-02-20 04:54:00,
2013-02-19 23:59:00,20.6,15.7,30.07,NW,306,3.0,4.0,81,0.00,,,0.14,Wunderground v.1.15,2013-02-20 04:59:00,